sensor_id;sensor_type;location;lat;lon;timestamp;P1;durP1;ratioP1;P2;durP2;ratioP2
14133;SDS011;7147;59.364;18.018;2022-10-30T00:01:46;4.22;;;1.65;;
14133;SDS011;7147;59.364;18.018;2022-10-30T00:04:13;6.03;;;2.22;;
14133;SDS011;7147;59.364;18.018;2022-10-30T00:06:40;4.53;;;1.85;;
14133;SDS011;7147;59.364;18.018;2022-10-30T00:09:07;4.93;;;2.10;;
14133;SDS011;7147;59.364;18.018;2022-10-30T00:11:34;5.50;;;2.22;;
14133;SDS011;7147;59.364;18.018;2022-10-30T00:14:02;6.25;;;2.58;;
14133;SDS011;7147;59.364;18.018;2022-10-30T00:16:28;6.03;;;2.75;;
14133;SDS011;7147;59.364;18.018;2022-10-30T00:18:55;5.60;;;2.10;;
14133;SDS011;7147;59.364;18.018;2022-10-30T00:21:22;6.72;;;2.40;;
14133;SDS011;7147;59.364;18.018;2022-10-30T00:23:50;5.45;;;2.00;;
14133;SDS011;7147;59.364;18.018;2022-10-30T00:26:18;5.22;;;2.28;;
14133;SDS011;7147;59.364;18.018;2022-10-30T00:28:48;5.63;;;2.00;;
14133;SDS011;7147;59.364;18.018;2022-10-30T00:31:16;5.35;;;2.15;;
14133;SDS011;7147;59.364;18.018;2022-10-30T00:33:43;6.07;;;2.20;;
14133;SDS011;7147;59.364;18.018;2022-10-30T00:36:14;4.63;;;1.93;;
14133;SDS011;7147;59.364;18.018;2022-10-30T00:38:41;5.77;;;2.33;;
14133;SDS011;7147;59.364;18.018;2022-10-30T00:41:11;4.13;;;1.80;;
14133;SDS011;7147;59.364;18.018;2022-10-30T00:43:39;5.32;;;2.30;;
14133;SDS011;7147;59.364;18.018;2022-10-30T00:46:07;4.45;;;1.83;;
14133;SDS011;7147;59.364;18.018;2022-10-30T00:48:43;5.47;;;2.15;;
14133;SDS011;7147;59.364;18.018;2022-10-30T00:51:21;5.17;;;2.10;;
14133;SDS011;7147;59.364;18.018;2022-10-30T00:53:49;4.95;;;1.95;;
14133;SDS011;7147;59.364;18.018;2022-10-30T00:56:17;4.72;;;1.75;;
14133;SDS011;7147;59.364;18.018;2022-10-30T00:58:47;5.05;;;1.90;;
14133;SDS011;7147;59.364;18.018;2022-10-30T01:01:18;3.55;;;1.52;;
14133;SDS011;7147;59.364;18.018;2022-10-30T01:03:52;6.32;;;1.90;;
14133;SDS011;7147;59.364;18.018;2022-10-30T01:06:22;3.85;;;1.58;;
14133;SDS011;7147;59.364;18.018;2022-10-30T01:08:50;3.27;;;1.47;;
14133;SDS011;7147;59.364;18.018;2022-10-30T01:11:19;4.80;;;1.88;;
14133;SDS011;7147;59.364;18.018;2022-10-30T01:13:46;5.93;;;1.60;;
14133;SDS011;7147;59.364;18.018;2022-10-30T01:16:18;4.15;;;1.70;;
14133;SDS011;7147;59.364;18.018;2022-10-30T01:19:13;2.97;;;1.23;;
14133;SDS011;7147;59.364;18.018;2022-10-30T01:21:50;4.05;;;1.30;;
14133;SDS011;7147;59.364;18.018;2022-10-30T01:24:34;3.08;;;1.45;;
14133;SDS011;7147;59.364;18.018;2022-10-30T01:27:17;3.65;;;1.08;;
14133;SDS011;7147;59.364;18.018;2022-10-30T01:29:59;2.67;;;1.27;;
14133;SDS011;7147;59.364;18.018;2022-10-30T01:32:38;4.13;;;1.40;;
14133;SDS011;7147;59.364;18.018;2022-10-30T01:35:17;2.90;;;1.38;;
14133;SDS011;7147;59.364;18.018;2022-10-30T01:37:49;2.65;;;1.20;;
14133;SDS011;7147;59.364;18.018;2022-10-30T01:40:22;2.60;;;1.23;;
14133;SDS011;7147;59.364;18.018;2022-10-30T01:42:49;3.35;;;1.50;;
14133;SDS011;7147;59.364;18.018;2022-10-30T01:45:22;3.20;;;1.15;;
14133;SDS011;7147;59.364;18.018;2022-10-30T01:48:02;2.75;;;1.05;;
14133;SDS011;7147;59.364;18.018;2022-10-30T01:50:44;3.30;;;1.20;;
14133;SDS011;7147;59.364;18.018;2022-10-30T01:53:23;2.53;;;0.90;;
14133;SDS011;7147;59.364;18.018;2022-10-30T01:56:03;1.48;;;0.80;;
14133;SDS011;7147;59.364;18.018;2022-10-30T01:58:41;2.20;;;1.02;;
14133;SDS011;7147;59.364;18.018;2022-10-30T02:01:13;2.95;;;1.20;;
14133;SDS011;7147;59.364;18.018;2022-10-30T02:03:40;1.92;;;1.00;;
14133;SDS011;7147;59.364;18.018;2022-10-30T02:06:09;1.65;;;0.85;;
14133;SDS011;7147;59.364;18.018;2022-10-30T02:08:36;2.83;;;1.00;;
14133;SDS011;7147;59.364;18.018;2022-10-30T02:11:03;2.92;;;0.98;;
14133;SDS011;7147;59.364;18.018;2022-10-30T02:13:31;3.35;;;0.98;;
14133;SDS011;7147;59.364;18.018;2022-10-30T02:15:58;2.45;;;1.00;;
14133;SDS011;7147;59.364;18.018;2022-10-30T02:18:25;2.33;;;1.00;;
14133;SDS011;7147;59.364;18.018;2022-10-30T02:20:55;2.10;;;0.98;;
14133;SDS011;7147;59.364;18.018;2022-10-30T02:23:22;2.90;;;0.90;;
14133;SDS011;7147;59.364;18.018;2022-10-30T02:25:48;1.83;;;0.93;;
14133;SDS011;7147;59.364;18.018;2022-10-30T02:28:15;2.25;;;0.93;;
14133;SDS011;7147;59.364;18.018;2022-10-30T02:30:42;2.33;;;1.10;;
14133;SDS011;7147;59.364;18.018;2022-10-30T02:33:09;1.92;;;1.00;;
14133;SDS011;7147;59.364;18.018;2022-10-30T02:35:36;3.90;;;1.20;;
14133;SDS011;7147;59.364;18.018;2022-10-30T02:38:04;1.70;;;0.80;;
14133;SDS011;7147;59.364;18.018;2022-10-30T02:40:31;2.00;;;0.90;;
14133;SDS011;7147;59.364;18.018;2022-10-30T02:42:58;2.15;;;1.00;;
14133;SDS011;7147;59.364;18.018;2022-10-30T02:45:25;2.08;;;1.00;;
14133;SDS011;7147;59.364;18.018;2022-10-30T02:47:51;1.60;;;0.98;;
14133;SDS011;7147;59.364;18.018;2022-10-30T02:50:18;2.50;;;0.82;;
14133;SDS011;7147;59.364;18.018;2022-10-30T02:52:45;4.78;;;1.10;;
14133;SDS011;7147;59.364;18.018;2022-10-30T02:55:13;2.33;;;0.82;;
14133;SDS011;7147;59.364;18.018;2022-10-30T02:57:40;3.60;;;1.00;;
14133;SDS011;7147;59.364;18.018;2022-10-30T03:00:07;1.40;;;0.90;;
14133;SDS011;7147;59.364;18.018;2022-10-30T03:02:35;2.60;;;0.85;;
14133;SDS011;7147;59.364;18.018;2022-10-30T03:05:02;2.10;;;0.90;;
14133;SDS011;7147;59.364;18.018;2022-10-30T03:07:29;2.25;;;0.70;;
14133;SDS011;7147;59.364;18.018;2022-10-30T03:09:56;1.85;;;0.85;;
14133;SDS011;7147;59.364;18.018;2022-10-30T03:12:24;2.35;;;0.80;;
14133;SDS011;7147;59.364;18.018;2022-10-30T03:14:51;2.42;;;1.02;;
14133;SDS011;7147;59.364;18.018;2022-10-30T03:17:18;2.77;;;0.80;;
14133;SDS011;7147;59.364;18.018;2022-10-30T03:19:44;2.30;;;0.90;;
14133;SDS011;7147;59.364;18.018;2022-10-30T03:22:11;1.60;;;0.90;;
14133;SDS011;7147;59.364;18.018;2022-10-30T03:24:38;1.42;;;0.90;;
14133;SDS011;7147;59.364;18.018;2022-10-30T03:27:05;2.50;;;0.98;;
14133;SDS011;7147;59.364;18.018;2022-10-30T03:29:33;2.00;;;0.82;;
14133;SDS011;7147;59.364;18.018;2022-10-30T03:31:59;1.83;;;0.85;;
14133;SDS011;7147;59.364;18.018;2022-10-30T03:34:26;3.85;;;0.90;;
14133;SDS011;7147;59.364;18.018;2022-10-30T03:36:53;3.67;;;0.98;;
14133;SDS011;7147;59.364;18.018;2022-10-30T03:39:20;2.60;;;0.80;;
14133;SDS011;7147;59.364;18.018;2022-10-30T03:41:47;2.45;;;0.90;;
14133;SDS011;7147;59.364;18.018;2022-10-30T03:44:13;3.15;;;0.90;;
14133;SDS011;7147;59.364;18.018;2022-10-30T03:46:41;1.92;;;0.70;;
14133;SDS011;7147;59.364;18.018;2022-10-30T03:49:08;2.72;;;0.90;;
14133;SDS011;7147;59.364;18.018;2022-10-30T03:51:35;2.63;;;1.02;;
14133;SDS011;7147;59.364;18.018;2022-10-30T03:54:02;2.45;;;0.88;;
14133;SDS011;7147;59.364;18.018;2022-10-30T03:56:28;1.70;;;0.60;;
14133;SDS011;7147;59.364;18.018;2022-10-30T03:58:55;1.90;;;1.00;;
14133;SDS011;7147;59.364;18.018;2022-10-30T04:01:22;1.50;;;0.70;;
14133;SDS011;7147;59.364;18.018;2022-10-30T04:03:50;1.47;;;0.73;;
14133;SDS011;7147;59.364;18.018;2022-10-30T04:06:17;1.75;;;0.85;;
14133;SDS011;7147;59.364;18.018;2022-10-30T04:08:43;1.83;;;0.68;;
14133;SDS011;7147;59.364;18.018;2022-10-30T04:11:10;3.00;;;1.40;;
14133;SDS011;7147;59.364;18.018;2022-10-30T04:13:37;1.43;;;0.70;;
14133;SDS011;7147;59.364;18.018;2022-10-30T04:16:04;2.50;;;0.90;;
14133;SDS011;7147;59.364;18.018;2022-10-30T04:18:31;2.75;;;0.80;;
14133;SDS011;7147;59.364;18.018;2022-10-30T04:20:59;3.10;;;0.80;;
14133;SDS011;7147;59.364;18.018;2022-10-30T04:23:26;2.28;;;0.82;;
14133;SDS011;7147;59.364;18.018;2022-10-30T04:25:53;1.60;;;0.80;;
14133;SDS011;7147;59.364;18.018;2022-10-30T04:28:19;2.35;;;1.17;;
14133;SDS011;7147;59.364;18.018;2022-10-30T04:30:46;1.98;;;0.80;;
14133;SDS011;7147;59.364;18.018;2022-10-30T04:33:13;2.05;;;0.90;;
14133;SDS011;7147;59.364;18.018;2022-10-30T04:35:40;2.95;;;0.80;;
14133;SDS011;7147;59.364;18.018;2022-10-30T04:38:09;1.88;;;0.88;;
14133;SDS011;7147;59.364;18.018;2022-10-30T04:40:37;2.13;;;0.70;;
14133;SDS011;7147;59.364;18.018;2022-10-30T04:43:05;1.73;;;0.85;;
14133;SDS011;7147;59.364;18.018;2022-10-30T04:45:33;3.13;;;0.80;;
14133;SDS011;7147;59.364;18.018;2022-10-30T04:48:01;2.30;;;0.90;;
14133;SDS011;7147;59.364;18.018;2022-10-30T04:50:29;1.45;;;0.85;;
14133;SDS011;7147;59.364;18.018;2022-10-30T04:53:00;2.67;;;1.00;;
14133;SDS011;7147;59.364;18.018;2022-10-30T04:55:29;2.88;;;0.98;;
14133;SDS011;7147;59.364;18.018;2022-10-30T04:57:56;1.40;;;0.70;;
14133;SDS011;7147;59.364;18.018;2022-10-30T05:00:23;0.95;;;0.68;;
14133;SDS011;7147;59.364;18.018;2022-10-30T05:02:51;2.08;;;0.80;;
14133;SDS011;7147;59.364;18.018;2022-10-30T05:05:19;1.98;;;0.80;;
14133;SDS011;7147;59.364;18.018;2022-10-30T05:07:46;3.30;;;0.85;;
14133;SDS011;7147;59.364;18.018;2022-10-30T05:10:12;1.88;;;0.88;;
14133;SDS011;7147;59.364;18.018;2022-10-30T05:12:42;1.58;;;0.77;;
14133;SDS011;7147;59.364;18.018;2022-10-30T05:15:10;2.95;;;0.90;;
14133;SDS011;7147;59.364;18.018;2022-10-30T05:17:38;3.17;;;1.17;;
14133;SDS011;7147;59.364;18.018;2022-10-30T05:20:06;2.17;;;0.95;;
14133;SDS011;7147;59.364;18.018;2022-10-30T05:22:34;1.58;;;0.70;;
14133;SDS011;7147;59.364;18.018;2022-10-30T05:25:00;2.80;;;0.85;;
14133;SDS011;7147;59.364;18.018;2022-10-30T05:27:27;1.70;;;0.73;;
14133;SDS011;7147;59.364;18.018;2022-10-30T05:29:55;2.70;;;0.90;;
14133;SDS011;7147;59.364;18.018;2022-10-30T05:32:22;3.00;;;0.80;;
14133;SDS011;7147;59.364;18.018;2022-10-30T05:34:49;2.40;;;0.70;;
14133;SDS011;7147;59.364;18.018;2022-10-30T05:37:16;1.85;;;0.90;;
14133;SDS011;7147;59.364;18.018;2022-10-30T05:39:42;3.15;;;0.77;;
14133;SDS011;7147;59.364;18.018;2022-10-30T05:42:09;1.65;;;0.80;;
14133;SDS011;7147;59.364;18.018;2022-10-30T05:44:36;1.95;;;0.75;;
14133;SDS011;7147;59.364;18.018;2022-10-30T05:47:04;2.20;;;0.80;;
14133;SDS011;7147;59.364;18.018;2022-10-30T05:49:31;1.45;;;0.90;;
14133;SDS011;7147;59.364;18.018;2022-10-30T05:51:57;1.75;;;0.77;;
14133;SDS011;7147;59.364;18.018;2022-10-30T05:54:24;1.73;;;0.85;;
14133;SDS011;7147;59.364;18.018;2022-10-30T05:56:51;1.45;;;0.70;;
14133;SDS011;7147;59.364;18.018;2022-10-30T05:59:17;2.53;;;0.80;;
14133;SDS011;7147;59.364;18.018;2022-10-30T06:01:44;1.57;;;0.67;;
14133;SDS011;7147;59.364;18.018;2022-10-30T06:04:12;2.33;;;0.85;;
14133;SDS011;7147;59.364;18.018;2022-10-30T06:06:39;2.90;;;0.80;;
14133;SDS011;7147;59.364;18.018;2022-10-30T06:09:06;2.08;;;0.82;;
14133;SDS011;7147;59.364;18.018;2022-10-30T06:11:36;2.03;;;0.80;;
14133;SDS011;7147;59.364;18.018;2022-10-30T06:14:03;2.35;;;0.57;;
14133;SDS011;7147;59.364;18.018;2022-10-30T06:16:29;2.25;;;0.80;;
14133;SDS011;7147;59.364;18.018;2022-10-30T06:18:56;1.67;;;0.75;;
14133;SDS011;7147;59.364;18.018;2022-10-30T06:21:24;1.65;;;0.73;;
14133;SDS011;7147;59.364;18.018;2022-10-30T06:23:51;1.80;;;0.60;;
14133;SDS011;7147;59.364;18.018;2022-10-30T06:26:18;2.05;;;0.73;;
14133;SDS011;7147;59.364;18.018;2022-10-30T06:28:44;2.22;;;0.70;;
14133;SDS011;7147;59.364;18.018;2022-10-30T06:31:11;1.55;;;0.85;;
14133;SDS011;7147;59.364;18.018;2022-10-30T06:33:38;1.63;;;0.80;;
14133;SDS011;7147;59.364;18.018;2022-10-30T06:36:05;2.42;;;0.63;;
14133;SDS011;7147;59.364;18.018;2022-10-30T06:38:33;2.72;;;0.80;;
14133;SDS011;7147;59.364;18.018;2022-10-30T06:41:00;1.83;;;0.70;;
14133;SDS011;7147;59.364;18.018;2022-10-30T06:43:26;1.95;;;0.73;;
14133;SDS011;7147;59.364;18.018;2022-10-30T06:45:53;2.53;;;0.80;;
14133;SDS011;7147;59.364;18.018;2022-10-30T06:48:22;1.90;;;0.90;;
14133;SDS011;7147;59.364;18.018;2022-10-30T06:50:52;3.00;;;1.13;;
14133;SDS011;7147;59.364;18.018;2022-10-30T06:53:19;2.38;;;0.80;;
14133;SDS011;7147;59.364;18.018;2022-10-30T06:55:53;3.03;;;0.88;;
14133;SDS011;7147;59.364;18.018;2022-10-30T06:58:20;1.83;;;0.90;;
14133;SDS011;7147;59.364;18.018;2022-10-30T07:00:47;1.60;;;0.75;;
14133;SDS011;7147;59.364;18.018;2022-10-30T07:03:14;2.33;;;0.90;;
14133;SDS011;7147;59.364;18.018;2022-10-30T07:05:41;1.88;;;0.90;;
14133;SDS011;7147;59.364;18.018;2022-10-30T07:08:07;1.58;;;0.80;;
14133;SDS011;7147;59.364;18.018;2022-10-30T07:10:34;1.75;;;0.80;;
14133;SDS011;7147;59.364;18.018;2022-10-30T07:13:02;3.28;;;0.80;;
14133;SDS011;7147;59.364;18.018;2022-10-30T07:15:29;2.63;;;1.00;;
14133;SDS011;7147;59.364;18.018;2022-10-30T07:17:57;1.60;;;0.80;;
14133;SDS011;7147;59.364;18.018;2022-10-30T07:20:27;2.08;;;0.90;;
14133;SDS011;7147;59.364;18.018;2022-10-30T07:22:55;1.40;;;0.60;;
14133;SDS011;7147;59.364;18.018;2022-10-30T07:25:22;1.50;;;0.80;;
14133;SDS011;7147;59.364;18.018;2022-10-30T07:27:49;1.17;;;0.73;;
14133;SDS011;7147;59.364;18.018;2022-10-30T07:30:19;1.55;;;0.73;;
14133;SDS011;7147;59.364;18.018;2022-10-30T07:32:54;1.75;;;0.75;;
14133;SDS011;7147;59.364;18.018;2022-10-30T07:35:22;2.00;;;0.88;;
14133;SDS011;7147;59.364;18.018;2022-10-30T07:37:48;1.83;;;0.90;;
14133;SDS011;7147;59.364;18.018;2022-10-30T07:40:15;2.75;;;0.75;;
14133;SDS011;7147;59.364;18.018;2022-10-30T07:42:42;1.95;;;0.70;;
14133;SDS011;7147;59.364;18.018;2022-10-30T07:45:09;1.92;;;0.77;;
14133;SDS011;7147;59.364;18.018;2022-10-30T07:47:39;2.20;;;0.80;;
14133;SDS011;7147;59.364;18.018;2022-10-30T07:50:06;1.48;;;0.68;;
14133;SDS011;7147;59.364;18.018;2022-10-30T07:52:33;1.67;;;0.82;;
14133;SDS011;7147;59.364;18.018;2022-10-30T07:55:00;5.15;;;1.02;;
14133;SDS011;7147;59.364;18.018;2022-10-30T07:57:29;2.53;;;0.85;;
14133;SDS011;7147;59.364;18.018;2022-10-30T07:59:56;1.75;;;0.88;;
14133;SDS011;7147;59.364;18.018;2022-10-30T08:02:23;1.80;;;0.85;;
14133;SDS011;7147;59.364;18.018;2022-10-30T08:04:51;3.08;;;1.10;;
14133;SDS011;7147;59.364;18.018;2022-10-30T08:07:18;2.78;;;1.00;;
14133;SDS011;7147;59.364;18.018;2022-10-30T08:09:44;2.10;;;1.10;;
14133;SDS011;7147;59.364;18.018;2022-10-30T08:12:11;3.50;;;1.00;;
14133;SDS011;7147;59.364;18.018;2022-10-30T08:14:38;3.67;;;1.00;;
14133;SDS011;7147;59.364;18.018;2022-10-30T08:17:05;2.65;;;0.88;;
14133;SDS011;7147;59.364;18.018;2022-10-30T08:19:34;3.90;;;1.20;;
14133;SDS011;7147;59.364;18.018;2022-10-30T08:22:02;1.92;;;0.77;;
14133;SDS011;7147;59.364;18.018;2022-10-30T08:24:29;3.75;;;1.20;;
14133;SDS011;7147;59.364;18.018;2022-10-30T08:26:56;1.52;;;0.90;;
14133;SDS011;7147;59.364;18.018;2022-10-30T08:29:23;2.43;;;0.90;;
14133;SDS011;7147;59.364;18.018;2022-10-30T08:31:50;2.57;;;1.00;;
14133;SDS011;7147;59.364;18.018;2022-10-30T08:34:16;2.88;;;0.88;;
14133;SDS011;7147;59.364;18.018;2022-10-30T08:36:43;2.28;;;1.05;;
14133;SDS011;7147;59.364;18.018;2022-10-30T08:39:11;2.13;;;0.88;;
14133;SDS011;7147;59.364;18.018;2022-10-30T08:41:38;2.20;;;1.00;;
14133;SDS011;7147;59.364;18.018;2022-10-30T08:44:05;2.50;;;1.00;;
14133;SDS011;7147;59.364;18.018;2022-10-30T08:46:31;3.67;;;0.93;;
14133;SDS011;7147;59.364;18.018;2022-10-30T08:48:58;2.55;;;1.00;;
14133;SDS011;7147;59.364;18.018;2022-10-30T08:51:25;3.28;;;1.10;;
14133;SDS011;7147;59.364;18.018;2022-10-30T08:53:52;1.60;;;0.95;;
14133;SDS011;7147;59.364;18.018;2022-10-30T08:56:20;3.03;;;1.20;;
14133;SDS011;7147;59.364;18.018;2022-10-30T08:58:47;3.25;;;0.90;;
14133;SDS011;7147;59.364;18.018;2022-10-30T09:01:15;2.47;;;1.02;;
14133;SDS011;7147;59.364;18.018;2022-10-30T09:03:43;2.15;;;0.90;;
14133;SDS011;7147;59.364;18.018;2022-10-30T09:06:10;2.15;;;0.90;;
14133;SDS011;7147;59.364;18.018;2022-10-30T09:08:37;2.70;;;0.98;;
14133;SDS011;7147;59.364;18.018;2022-10-30T09:11:04;3.08;;;1.10;;
14133;SDS011;7147;59.364;18.018;2022-10-30T09:13:32;1.65;;;0.80;;
14133;SDS011;7147;59.364;18.018;2022-10-30T09:15:59;2.13;;;1.10;;
14133;SDS011;7147;59.364;18.018;2022-10-30T09:18:27;1.60;;;0.90;;
14133;SDS011;7147;59.364;18.018;2022-10-30T09:20:53;3.10;;;0.90;;
14133;SDS011;7147;59.364;18.018;2022-10-30T09:23:20;3.78;;;1.55;;
14133;SDS011;7147;59.364;18.018;2022-10-30T09:25:47;2.13;;;0.90;;
14133;SDS011;7147;59.364;18.018;2022-10-30T09:28:14;2.37;;;0.70;;
14133;SDS011;7147;59.364;18.018;2022-10-30T09:30:42;1.75;;;0.85;;
14133;SDS011;7147;59.364;18.018;2022-10-30T09:33:09;1.83;;;0.80;;
14133;SDS011;7147;59.364;18.018;2022-10-30T09:35:35;2.78;;;0.90;;
14133;SDS011;7147;59.364;18.018;2022-10-30T09:38:02;4.32;;;1.10;;
14133;SDS011;7147;59.364;18.018;2022-10-30T09:40:32;2.10;;;1.17;;
14133;SDS011;7147;59.364;18.018;2022-10-30T09:43:13;2.55;;;1.10;;
14133;SDS011;7147;59.364;18.018;2022-10-30T09:45:57;1.85;;;1.00;;
14133;SDS011;7147;59.364;18.018;2022-10-30T09:51:33;3.38;;;0.88;;
14133;SDS011;7147;59.364;18.018;2022-10-30T09:54:22;1.90;;;1.00;;
14133;SDS011;7147;59.364;18.018;2022-10-30T09:57:01;2.28;;;0.90;;
14133;SDS011;7147;59.364;18.018;2022-10-30T09:59:36;1.90;;;0.90;;
14133;SDS011;7147;59.364;18.018;2022-10-30T10:02:25;2.28;;;1.00;;
14133;SDS011;7147;59.364;18.018;2022-10-30T10:04:58;3.95;;;1.50;;
14133;SDS011;7147;59.364;18.018;2022-10-30T10:07:29;2.28;;;0.93;;
14133;SDS011;7147;59.364;18.018;2022-10-30T10:10:03;3.10;;;1.20;;
14133;SDS011;7147;59.364;18.018;2022-10-30T10:12:34;2.13;;;1.05;;
14133;SDS011;7147;59.364;18.018;2022-10-30T10:15:08;2.88;;;1.08;;
14133;SDS011;7147;59.364;18.018;2022-10-30T10:17:41;2.60;;;0.88;;
14133;SDS011;7147;59.364;18.018;2022-10-30T10:20:12;1.80;;;0.90;;
14133;SDS011;7147;59.364;18.018;2022-10-30T10:22:44;1.90;;;0.82;;
14133;SDS011;7147;59.364;18.018;2022-10-30T10:25:15;2.03;;;1.08;;
14133;SDS011;7147;59.364;18.018;2022-10-30T10:27:58;2.00;;;0.73;;
14133;SDS011;7147;59.364;18.018;2022-10-30T10:30:34;1.57;;;0.80;;
14133;SDS011;7147;59.364;18.018;2022-10-30T10:33:13;2.22;;;0.93;;
14133;SDS011;7147;59.364;18.018;2022-10-30T10:35:52;2.22;;;0.90;;
14133;SDS011;7147;59.364;18.018;2022-10-30T10:38:36;1.60;;;0.80;;
14133;SDS011;7147;59.364;18.018;2022-10-30T10:41:15;2.55;;;1.05;;
14133;SDS011;7147;59.364;18.018;2022-10-30T10:43:53;2.08;;;0.90;;
14133;SDS011;7147;59.364;18.018;2022-10-30T10:46:33;2.13;;;0.82;;
14133;SDS011;7147;59.364;18.018;2022-10-30T10:49:14;3.47;;;1.50;;
14133;SDS011;7147;59.364;18.018;2022-10-30T10:51:51;2.80;;;1.30;;
14133;SDS011;7147;59.364;18.018;2022-10-30T10:54:22;3.17;;;1.15;;
14133;SDS011;7147;59.364;18.018;2022-10-30T10:56:53;2.05;;;1.08;;
14133;SDS011;7147;59.364;18.018;2022-10-30T10:59:22;2.38;;;1.00;;
14133;SDS011;7147;59.364;18.018;2022-10-30T11:01:59;2.25;;;1.10;;
14133;SDS011;7147;59.364;18.018;2022-10-30T11:04:46;3.35;;;1.10;;
14133;SDS011;7147;59.364;18.018;2022-10-30T11:07:20;2.60;;;1.10;;
14133;SDS011;7147;59.364;18.018;2022-10-30T11:09:49;2.40;;;0.90;;
14133;SDS011;7147;59.364;18.018;2022-10-30T11:12:18;1.90;;;1.10;;
14133;SDS011;7147;59.364;18.018;2022-10-30T11:14:48;22.33;;;5.30;;
14133;SDS011;7147;59.364;18.018;2022-10-30T11:17:25;27.42;;;6.43;;
14133;SDS011;7147;59.364;18.018;2022-10-30T11:20:02;23.75;;;6.07;;
14133;SDS011;7147;59.364;18.018;2022-10-30T11:22:41;21.35;;;5.30;;
14133;SDS011;7147;59.364;18.018;2022-10-30T11:25:17;22.40;;;5.93;;
14133;SDS011;7147;59.364;18.018;2022-10-30T11:27:46;21.98;;;5.32;;
14133;SDS011;7147;59.364;18.018;2022-10-30T11:30:18;21.60;;;5.50;;
14133;SDS011;7147;59.364;18.018;2022-10-30T11:32:45;19.48;;;4.78;;
14133;SDS011;7147;59.364;18.018;2022-10-30T11:35:15;26.13;;;6.45;;
14133;SDS011;7147;59.364;18.018;2022-10-30T11:37:43;19.10;;;4.77;;
14133;SDS011;7147;59.364;18.018;2022-10-30T11:40:15;21.57;;;5.10;;
14133;SDS011;7147;59.364;18.018;2022-10-30T11:42:44;19.88;;;4.88;;
14133;SDS011;7147;59.364;18.018;2022-10-30T11:45:14;20.47;;;5.37;;
14133;SDS011;7147;59.364;18.018;2022-10-30T11:47:42;16.30;;;4.28;;
14133;SDS011;7147;59.364;18.018;2022-10-30T11:50:15;14.02;;;4.10;;
14133;SDS011;7147;59.364;18.018;2022-10-30T11:52:45;15.52;;;4.32;;
14133;SDS011;7147;59.364;18.018;2022-10-30T11:55:15;18.17;;;5.63;;
14133;SDS011;7147;59.364;18.018;2022-10-30T11:57:45;12.77;;;3.97;;
14133;SDS011;7147;59.364;18.018;2022-10-30T12:00:15;14.90;;;4.45;;
14133;SDS011;7147;59.364;18.018;2022-10-30T12:02:45;15.30;;;4.20;;
14133;SDS011;7147;59.364;18.018;2022-10-30T12:05:30;16.88;;;4.72;;
14133;SDS011;7147;59.364;18.018;2022-10-30T12:08:18;14.75;;;4.50;;
14133;SDS011;7147;59.364;18.018;2022-10-30T12:10:53;12.82;;;3.63;;
14133;SDS011;7147;59.364;18.018;2022-10-30T12:13:24;13.73;;;4.23;;
14133;SDS011;7147;59.364;18.018;2022-10-30T12:16:02;11.68;;;3.13;;
14133;SDS011;7147;59.364;18.018;2022-10-30T12:18:31;15.55;;;4.68;;
14133;SDS011;7147;59.364;18.018;2022-10-30T12:21:00;17.35;;;4.70;;
14133;SDS011;7147;59.364;18.018;2022-10-30T12:23:28;16.63;;;4.70;;
14133;SDS011;7147;59.364;18.018;2022-10-30T12:25:58;25.98;;;6.65;;
14133;SDS011;7147;59.364;18.018;2022-10-30T12:28:27;20.30;;;5.38;;
14133;SDS011;7147;59.364;18.018;2022-10-30T12:30:57;19.83;;;5.22;;
14133;SDS011;7147;59.364;18.018;2022-10-30T12:33:31;23.27;;;6.00;;
14133;SDS011;7147;59.364;18.018;2022-10-30T12:36:02;22.52;;;5.70;;
14133;SDS011;7147;59.364;18.018;2022-10-30T12:38:36;19.65;;;5.35;;
14133;SDS011;7147;59.364;18.018;2022-10-30T12:41:11;19.83;;;5.35;;
14133;SDS011;7147;59.364;18.018;2022-10-30T12:43:46;21.13;;;5.60;;
14133;SDS011;7147;59.364;18.018;2022-10-30T12:46:25;20.63;;;5.70;;
14133;SDS011;7147;59.364;18.018;2022-10-30T12:49:00;29.67;;;7.27;;
14133;SDS011;7147;59.364;18.018;2022-10-30T12:51:42;22.60;;;5.80;;
14133;SDS011;7147;59.364;18.018;2022-10-30T12:54:17;22.48;;;5.85;;
14133;SDS011;7147;59.364;18.018;2022-10-30T12:56:49;28.00;;;7.05;;
14133;SDS011;7147;59.364;18.018;2022-10-30T12:59:26;21.65;;;5.72;;
14133;SDS011;7147;59.364;18.018;2022-10-30T13:02:02;20.83;;;5.53;;
14133;SDS011;7147;59.364;18.018;2022-10-30T13:04:42;26.85;;;6.53;;
14133;SDS011;7147;59.364;18.018;2022-10-30T13:07:16;17.73;;;4.55;;
14133;SDS011;7147;59.364;18.018;2022-10-30T13:09:48;21.60;;;5.32;;
14133;SDS011;7147;59.364;18.018;2022-10-30T13:12:28;22.13;;;5.88;;
14133;SDS011;7147;59.364;18.018;2022-10-30T13:15:00;19.17;;;5.13;;
14133;SDS011;7147;59.364;18.018;2022-10-30T13:17:29;20.92;;;5.70;;
14133;SDS011;7147;59.364;18.018;2022-10-30T13:19:56;19.77;;;5.07;;
14133;SDS011;7147;59.364;18.018;2022-10-30T13:22:24;23.40;;;5.97;;
14133;SDS011;7147;59.364;18.018;2022-10-30T13:24:56;20.67;;;5.05;;
14133;SDS011;7147;59.364;18.018;2022-10-30T13:27:28;21.73;;;5.75;;
14133;SDS011;7147;59.364;18.018;2022-10-30T13:30:07;22.92;;;5.47;;
14133;SDS011;7147;59.364;18.018;2022-10-30T13:32:40;21.23;;;5.57;;
14133;SDS011;7147;59.364;18.018;2022-10-30T13:35:22;23.13;;;5.97;;
14133;SDS011;7147;59.364;18.018;2022-10-30T13:38:01;19.85;;;5.07;;
14133;SDS011;7147;59.364;18.018;2022-10-30T13:40:51;20.87;;;5.47;;
14133;SDS011;7147;59.364;18.018;2022-10-30T13:43:23;27.05;;;6.30;;
14133;SDS011;7147;59.364;18.018;2022-10-30T13:46:09;21.30;;;5.00;;
14133;SDS011;7147;59.364;18.018;2022-10-30T13:48:56;25.42;;;6.28;;
14133;SDS011;7147;59.364;18.018;2022-10-30T13:51:36;25.65;;;6.07;;
14133;SDS011;7147;59.364;18.018;2022-10-30T13:54:11;22.03;;;5.33;;
14133;SDS011;7147;59.364;18.018;2022-10-30T13:56:44;30.00;;;7.00;;
14133;SDS011;7147;59.364;18.018;2022-10-30T14:02:11;35.50;;;7.38;;
14133;SDS011;7147;59.364;18.018;2022-10-30T14:04:49;45.72;;;9.07;;
14133;SDS011;7147;59.364;18.018;2022-10-30T14:07:23;39.22;;;7.75;;
14133;SDS011;7147;59.364;18.018;2022-10-30T14:09:58;42.05;;;8.57;;
14133;SDS011;7147;59.364;18.018;2022-10-30T14:12:44;38.25;;;7.72;;
14133;SDS011;7147;59.364;18.018;2022-10-30T14:15:18;37.70;;;7.43;;
14133;SDS011;7147;59.364;18.018;2022-10-30T14:24:00;46.28;;;8.93;;
14133;SDS011;7147;59.364;18.018;2022-10-30T14:26:30;50.00;;;9.77;;
14133;SDS011;7147;59.364;18.018;2022-10-30T14:28:57;40.83;;;7.80;;
14133;SDS011;7147;59.364;18.018;2022-10-30T14:31:33;39.00;;;7.43;;
14133;SDS011;7147;59.364;18.018;2022-10-30T14:34:02;42.65;;;8.02;;
14133;SDS011;7147;59.364;18.018;2022-10-30T14:36:47;54.42;;;10.50;;
14133;SDS011;7147;59.364;18.018;2022-10-30T14:39:26;48.05;;;8.95;;
14133;SDS011;7147;59.364;18.018;2022-10-30T14:41:59;59.58;;;11.57;;
14133;SDS011;7147;59.364;18.018;2022-10-30T14:47:49;57.65;;;10.80;;
14133;SDS011;7147;59.364;18.018;2022-10-30T14:50:31;54.53;;;10.45;;
14133;SDS011;7147;59.364;18.018;2022-10-30T14:53:19;45.40;;;8.75;;
14133;SDS011;7147;59.364;18.018;2022-10-30T14:55:56;52.67;;;10.10;;
14133;SDS011;7147;59.364;18.018;2022-10-30T14:58:32;45.72;;;8.57;;
14133;SDS011;7147;59.364;18.018;2022-10-30T15:03:54;49.97;;;9.23;;
14133;SDS011;7147;59.364;18.018;2022-10-30T15:06:36;47.17;;;8.88;;
14133;SDS011;7147;59.364;18.018;2022-10-30T15:09:18;48.78;;;9.35;;
14133;SDS011;7147;59.364;18.018;2022-10-30T15:11:56;52.15;;;9.90;;
14133;SDS011;7147;59.364;18.018;2022-10-30T15:14:34;53.07;;;10.60;;
14133;SDS011;7147;59.364;18.018;2022-10-30T15:17:04;30.77;;;7.07;;
14133;SDS011;7147;59.364;18.018;2022-10-30T15:19:30;33.47;;;7.55;;
14133;SDS011;7147;59.364;18.018;2022-10-30T15:21:59;37.80;;;8.43;;